Florinea, Brazil
Current Conditions -  °F | °C
As of 1:00 AM on Sunday 26 Oct 2014 (Local Time) from SBLO Reporting Station
Clear Clear  
Wind Chill: 20°   Ceiling: Unl
Heat Index: 20°   Visibility: 6mi
Dew Point: 19°   Wind: 2mph
Humidity: 94%   Direction: 80°E
Pressure: 29.97"   Gusts: NA
Location:  22.9°S, 50.73°W
Report Text: SBLO 260300Z 08002KT CAVOK 20/19 Q1015
Loading
Personal Weather Stations






























Interactive Weather Map
Tropical Storm Tracking
New forecast layout! Learn more

10-Day Weather Forecast

Advertisements
Track Severe Weather on mobile